Pamela B. — WDE9162 — position and weather

sailwx.info

Track history (hours):
 
Tides and Currents Weather Stations Pressure Air Temp Water Temp Dewpoint Dewpoint Depression Visibility Wind Speed Wind Dir Waves Ship Positions

Pamela B.

Owner: F/V Pamela B. Inc., Danvers, MA. More information available from US FCC via Universal Licensing System and Coast Guard Vessel Documentation Center.

Last reported at 2018-Jan-11 19:33 UTC. Time now 2018-Jan-18 10:15 UTC.
Position N 42°31' W 070°49'.

Length 14 m.

Type: Fishing. MMSI: 367414250.

Date/timePositionNaut miles runAvg speedWind from/ knotsBaromVisibWave heightAir tempDewpointWater temp
2018-Jan-11 19:33N 42°31' W 070°49'0 8.9
2018-Jan-11 19:30N 42°31' W 070°48'4 8.8
2018-Jan-11 19:00N 42°29' W 070°43'4 7.7
2018-Jan-11 18:30N 42°27' W 070°39'1 2.1
2018-Jan-11 17:59N 42°26' W 070°38'0 0.7
2018-Jan-11 17:30N 42°26' W 070°38'3 4.4
2018-Jan-11 16:53N 42°24' W 070°35'0 1.2
2018-Jan-11 16:30N 42°24' W 070°34'13 0.7
2018-Jan-10 20:21N 42°32' W 070°49'3 9.0
2018-Jan-10 20:00N 42°29' W 070°46'4 9.0
2018-Jan-10 19:30N 42°27' W 070°41'5 8.9
2018-Jan-10 19:00N 42°24' W 070°36'1 0.1
2018-Jan-10 11:06N 42°25' W 070°37'1 9.1
2018-Jan-10 11:00N 42°25' W 070°38'5 8.9
2018-Jan-10 10:27N 42°28' W 070°43'  
2018-Jan-03 19:37N 42°30' W 070°47'1 8.6
2018-Jan-03 19:28N 42°30' W 070°46'4 8.7
2018-Jan-03 18:59N 42°28' W 070°41'3 5.6
2018-Jan-03 18:29N 42°26' W 070°38'0 0.4
2018-Jan-03 17:46N 42°26' W 070°38'0 0.3
2018-Jan-03 17:26N 42°26' W 070°38'3 0.5
2018-Jan-03 10:55N 42°27' W 070°42'  
Track history (hours):
 
Tides and Currents Weather Stations Pressure Air Temp Water Temp Dewpoint Dewpoint Depression Visibility Wind Speed Wind Dir Waves Ship Positions

Pamela B.

Owner: F/V Pamela B. Inc., Danvers, MA. More information available from US FCC via Universal Licensing System and Coast Guard Vessel Documentation Center.

Last reported at 2018-Jan-11 19:33 UTC. Time now 2018-Jan-18 10:15 UTC.
Position N 42°31' W 070°49'.

Length 14 m.

Type: Fishing. MMSI: 367414250.

Date/timePositionNaut miles runAvg speedWind from/ knotsBaromVisibWave heightAir tempDewpointWater temp
2018-Jan-11 19:33N 42°31' W 070°49'0 8.9
2018-Jan-11 19:30N 42°31' W 070°48'4 8.8
2018-Jan-11 19:00N 42°29' W 070°43'4 7.7
2018-Jan-11 18:30N 42°27' W 070°39'1 2.1
2018-Jan-11 17:59N 42°26' W 070°38'0 0.7
2018-Jan-11 17:30N 42°26' W 070°38'3 4.4
2018-Jan-11 16:53N 42°24' W 070°35'0 1.2
2018-Jan-11 16:30N 42°24' W 070°34'13 0.7
2018-Jan-10 20:21N 42°32' W 070°49'3 9.0
2018-Jan-10 20:00N 42°29' W 070°46'4 9.0
2018-Jan-10 19:30N 42°27' W 070°41'5 8.9
2018-Jan-10 19:00N 42°24' W 070°36'1 0.1
2018-Jan-10 11:06N 42°25' W 070°37'1 9.1
2018-Jan-10 11:00N 42°25' W 070°38'5 8.9
2018-Jan-10 10:27N 42°28' W 070°43'  
2018-Jan-03 19:37N 42°30' W 070°47'1 8.6
2018-Jan-03 19:28N 42°30' W 070°46'4 8.7
2018-Jan-03 18:59N 42°28' W 070°41'3 5.6
2018-Jan-03 18:29N 42°26' W 070°38'0 0.4
2018-Jan-03 17:46N 42°26' W 070°38'0 0.3
2018-Jan-03 17:26N 42°26' W 070°38'3 0.5
2018-Jan-03 10:55N 42°27' W 070°42'  

Dump ship's entire track history